createdAt,value
2019-03-26T00:01:29.943Z,94395.61
2019-03-26T00:04:05.244Z,94393.06
2019-03-26T00:06:21.943Z,94400.25
2019-03-26T00:08:47.954Z,94398.12
2019-03-26T00:11:13.946Z,94409.17
2019-03-26T00:13:39.947Z,94410.12
2019-03-26T00:16:05.947Z,94413.71
2019-03-26T00:18:31.947Z,94413.30
2019-03-26T00:20:57.946Z,94422.22
2019-03-26T00:23:23.976Z,94427.97
2019-03-26T00:25:49.967Z,94436.48
2019-03-26T00:28:15.963Z,94437.41
2019-03-26T00:30:41.959Z,94444.48
2019-03-26T00:33:07.961Z,94448.07
2019-03-26T00:35:33.956Z,94448.20
2019-03-26T00:38:00.034Z,94450.87
2019-03-26T00:40:25.954Z,94457.53
2019-03-26T00:42:51.951Z,94455.38
2019-03-26T00:45:17.974Z,94464.20
2019-03-26T00:47:44.007Z,94464.30
2019-03-26T00:50:09.968Z,94468.30
2019-03-26T00:52:35.967Z,94467.92
2019-03-26T00:55:01.967Z,94474.17
2019-03-26T00:57:27.960Z,94476.14
2019-03-26T00:59:53.954Z,94475.20
2019-03-26T01:02:19.975Z,94479.20
2019-03-26T01:04:45.975Z,94476.94
2019-03-26T01:07:11.963Z,94477.86
2019-03-26T01:09:37.964Z,94483.20
2019-03-26T01:12:03.961Z,94486.81
2019-03-26T01:14:29.965Z,94484.66
2019-03-26T01:16:55.961Z,94488.66
2019-03-26T01:19:21.995Z,94486.91
2019-03-26T01:21:47.995Z,94488.66
2019-03-26T01:24:13.988Z,94486.91
2019-03-26T01:26:40.000Z,94489.30
2019-03-26T01:29:05.986Z,94487.95
2019-03-26T01:31:31.989Z,94487.95
2019-03-26T01:33:57.982Z,94485.80
2019-03-26T01:36:23.986Z,94488.98
2019-03-26T01:38:49.978Z,94492.97
2019-03-26T01:41:15.981Z,94490.72
2019-03-26T01:43:41.976Z,94497.93
2019-03-26T01:46:07.998Z,94499.64
2019-03-26T01:48:34.060Z,94505.11
2019-03-26T01:51:00.060Z,94504.19
2019-03-26T01:53:26.060Z,94508.28
2019-03-26T01:55:52.050Z,94510.95
2019-03-26T01:58:18.065Z,94517.20
2019-03-26T02:00:44.047Z,94518.44
2019-03-26T02:03:10.042Z,94520.70
2019-03-26T02:05:36.042Z,94526.54
2019-03-26T02:08:02.051Z,94525.62
2019-03-26T02:10:28.051Z,94520.41
2019-03-26T02:12:54.042Z,94522.54
2019-03-26T02:15:20.052Z,94523.88
2019-03-26T02:17:46.051Z,94528.80
2019-03-26T02:20:12.053Z,94533.75
2019-03-26T02:22:38.047Z,94536.00
2019-03-26T02:25:04.066Z,94544.41
2019-03-26T02:27:30.062Z,94540.41
2019-03-26T02:29:56.055Z,94545.84
2019-03-26T02:32:22.062Z,94544.52
2019-03-26T02:34:48.052Z,94542.77
2019-03-26T02:37:14.053Z,94549.43
2019-03-26T02:39:40.053Z,94548.09
2019-03-26T02:42:06.091Z,94549.14
2019-03-26T02:44:32.090Z,94549.56
2019-03-26T02:46:58.083Z,94558.35
2019-03-26T02:49:24.082Z,94565.97
2019-03-26T02:51:50.079Z,94564.23
2019-03-26T02:54:16.090Z,94569.56
2019-03-26T02:56:42.077Z,94579.81
2019-03-26T02:59:08.085Z,94582.98
2019-03-26T03:01:34.078Z,94587.41
2019-03-26T03:04:00.110Z,94596.33
2019-03-26T03:06:26.113Z,94595.91
2019-03-26T03:08:52.124Z,94597.25
2019-03-26T03:11:18.112Z,94607.13
2019-03-26T03:13:44.108Z,94606.20
2019-03-26T03:16:10.117Z,94612.05
2019-03-26T03:18:36.107Z,94615.53
2019-03-26T03:21:02.127Z,94624.96
2019-03-26T03:23:28.119Z,94627.63
2019-03-26T03:25:54.138Z,94627.63
2019-03-26T03:28:20.112Z,94633.88
2019-03-26T03:30:46.114Z,94642.02
2019-03-26T03:33:12.108Z,94651.34
2019-03-26T03:35:51.471Z,94648.77
2019-03-26T03:38:04.103Z,94657.19
2019-03-26T03:40:30.100Z,94660.27
2019-03-26T03:42:56.107Z,94662.11
2019-03-26T03:45:22.107Z,94663.16
2019-03-26T03:47:48.114Z,94661.70
2019-03-26T03:50:14.122Z,94676.78
2019-03-26T03:52:40.117Z,94676.36
2019-03-26T03:55:06.145Z,94684.36
2019-03-26T03:57:32.131Z,94677.31
2019-03-26T03:59:58.122Z,94684.48
2019-03-26T04:02:24.123Z,94686.66
2019-03-26T04:04:50.120Z,94679.66
2019-03-26T04:07:16.122Z,94703.66
2019-03-26T04:09:42.116Z,94698.45
2019-03-26T04:12:08.116Z,94705.53
2019-03-26T04:14:34.116Z,94717.00
2019-03-26T04:17:00.109Z,94718.33
2019-03-26T04:19:26.115Z,94725.54
2019-03-26T04:21:52.111Z,94725.13
2019-03-26T04:24:18.113Z,94740.20
2019-03-26T04:26:44.114Z,94738.46
2019-03-26T04:29:10.186Z,94738.55
2019-03-26T04:31:36.201Z,94741.13
2019-03-26T04:34:02.192Z,94745.12
2019-03-26T04:36:28.198Z,94754.97
2019-03-26T04:38:54.288Z,94750.14
2019-03-26T04:41:20.213Z,94755.38
2019-03-26T04:43:46.217Z,94755.67
2019-03-26T04:46:12.205Z,94766.34
2019-03-26T04:48:38.202Z,94773.55
2019-03-26T04:51:04.200Z,94765.84
2019-03-26T04:53:30.223Z,94779.17
2019-03-26T04:55:56.216Z,94780.09
2019-03-26T04:58:22.244Z,94785.93
2019-03-26T05:00:48.249Z,94788.59
2019-03-26T05:03:14.235Z,94789.42
2019-03-26T05:05:40.245Z,94794.67
2019-03-26T05:08:06.262Z,94798.25
2019-03-26T05:10:32.286Z,94803.05
2019-03-26T05:12:58.281Z,94806.84
2019-03-26T05:15:24.330Z,94806.53
2019-03-26T05:17:50.342Z,94816.28
2019-03-26T05:20:16.369Z,94817.91
2019-03-26T05:22:42.372Z,94823.66
2019-03-26T05:25:08.368Z,94824.07
2019-03-26T05:27:44.842Z,94818.20
2019-03-26T05:30:00.401Z,94820.58
2019-03-26T05:32:26.384Z,94827.24
2019-03-26T05:34:52.382Z,94836.70
2019-03-26T05:37:18.392Z,94825.08
2019-03-26T05:39:44.392Z,94829.08
2019-03-26T05:42:10.395Z,94833.50
2019-03-26T05:44:36.411Z,94827.24
2019-03-26T05:47:02.426Z,94836.07
2019-03-26T05:49:28.425Z,94828.98
2019-03-26T05:51:54.427Z,94826.33
2019-03-26T05:54:20.424Z,94831.95
2019-03-26T05:56:46.425Z,94836.78
2019-03-26T05:59:12.434Z,94836.48
2019-03-26T06:01:38.472Z,94833.41
2019-03-26T06:04:04.473Z,94838.20
2019-03-26T06:06:30.476Z,94841.41
2019-03-26T06:08:56.515Z,94838.62
2019-03-26T06:11:22.535Z,94842.33
2019-03-26T06:13:48.537Z,94843.24
2019-03-26T06:16:14.528Z,94848.17
2019-03-26T06:18:40.530Z,94850.42
2019-03-26T06:21:06.528Z,94852.70
2019-03-26T06:23:32.538Z,94853.09
2019-03-26T06:25:58.592Z,94859.75
2019-03-26T06:28:24.600Z,94857.09
2019-03-26T06:30:50.597Z,94856.70
2019-03-26T06:33:16.653Z,94862.33
2019-03-26T06:35:42.736Z,94845.62
2019-03-26T06:38:08.731Z,94866.42
2019-03-26T06:40:34.767Z,94865.50
2019-03-26T06:43:00.764Z,94862.42
2019-03-26T06:45:26.902Z,94870.63
2019-03-26T06:47:52.921Z,94865.92
2019-03-26T06:50:18.930Z,94872.08
2019-03-26T06:52:44.945Z,94871.76
2019-03-26T06:55:10.945Z,94870.55
2019-03-26T06:57:36.941Z,94876.08
2019-03-26T07:00:02.940Z,94868.59
2019-03-26T07:02:28.972Z,94869.92
2019-03-26T07:04:54.978Z,94869.83
2019-03-26T07:07:30.808Z,94868.17
2019-03-26T07:09:47.034Z,94870.42
2019-03-26T07:12:13.040Z,94876.17
2019-03-26T07:14:39.034Z,94872.30
2019-03-26T07:17:05.079Z,94878.05
2019-03-26T07:19:31.064Z,94874.96
2019-03-26T07:21:57.070Z,94881.22
2019-03-26T07:24:23.089Z,94881.31
2019-03-26T07:26:49.089Z,94889.73
2019-03-26T07:29:15.097Z,94888.39
2019-03-26T07:31:41.118Z,94891.47
2019-03-26T07:34:07.310Z,94891.06
2019-03-26T07:36:33.122Z,94888.39
2019-03-26T07:38:59.129Z,94895.59
2019-03-26T07:41:25.123Z,94893.72
2019-03-26T07:43:51.152Z,94895.98
2019-03-26T07:46:17.179Z,94896.39
2019-03-26T07:48:43.174Z,94894.64
2019-03-26T07:51:09.178Z,94891.06
2019-03-26T07:53:35.180Z,94898.35
2019-03-26T07:56:01.186Z,94901.31
2019-03-26T07:58:27.186Z,94900.10
2019-03-26T08:00:53.191Z,94899.81
2019-03-26T08:03:21.208Z,94907.27
2019-03-26T08:05:45.189Z,94905.14
2019-03-26T08:08:11.198Z,94906.48
2019-03-26T08:10:37.225Z,94900.61
2019-03-26T08:13:03.214Z,94905.52
2019-03-26T08:15:29.199Z,94904.31
2019-03-26T08:17:55.228Z,94904.19
2019-03-26T08:20:21.223Z,94903.48
2019-03-26T08:22:47.218Z,94901.64
2019-03-26T08:25:13.222Z,94902.48
2019-03-26T08:27:39.222Z,94903.48
2019-03-26T08:30:05.215Z,94906.98
2019-03-26T08:32:31.216Z,94905.64
2019-03-26T08:34:57.240Z,94918.98
2019-03-26T08:37:23.236Z,94915.91
2019-03-26T08:39:49.230Z,94913.74
2019-03-26T08:42:15.235Z,94916.82
2019-03-26T08:44:41.228Z,94918.16
2019-03-26T08:47:07.231Z,94915.61
2019-03-26T08:49:33.229Z,94911.61
2019-03-26T08:51:59.241Z,94922.69
2019-03-26T08:54:25.229Z,94918.78
2019-03-26T08:56:51.254Z,94917.36
2019-03-26T08:59:17.244Z,94911.61
2019-03-26T09:01:43.244Z,94913.86
2019-03-26T09:04:09.257Z,94917.86
2019-03-26T09:06:35.254Z,94918.37
2019-03-26T09:09:01.272Z,94920.95
2019-03-26T09:11:27.270Z,94918.78
2019-03-26T09:13:53.402Z,94913.03
2019-03-26T09:16:19.401Z,94915.28
2019-03-26T09:18:45.411Z,94917.57
2019-03-26T09:21:11.416Z,94917.16
2019-03-26T09:23:37.416Z,94909.57
2019-03-26T09:26:03.415Z,94914.48
2019-03-26T09:28:29.410Z,94911.41
2019-03-26T09:30:55.417Z,94913.16
2019-03-26T09:33:21.413Z,94912.62
2019-03-26T09:35:47.431Z,94912.74
2019-03-26T09:38:13.425Z,94918.48
2019-03-26T09:40:39.428Z,94921.66
2019-03-26T09:43:05.446Z,94922.99
2019-03-26T09:45:31.424Z,94921.25
2019-03-26T09:47:57.426Z,94925.25
2019-03-26T09:50:23.417Z,94929.25
2019-03-26T09:52:49.415Z,94928.33
2019-03-26T09:55:15.421Z,94929.78
2019-03-26T09:57:41.415Z,94932.45
2019-03-26T10:00:07.416Z,94925.78
2019-03-26T10:02:33.412Z,94928.12
2019-03-26T10:04:59.428Z,94931.63
2019-03-26T10:07:25.442Z,94941.45
2019-03-26T10:09:51.456Z,94932.66
2019-03-26T10:12:17.456Z,94934.80
2019-03-26T10:14:43.455Z,94931.20
2019-03-26T10:17:09.460Z,94935.62
2019-03-26T10:19:35.459Z,94936.45
2019-03-26T10:22:01.465Z,94943.62
2019-03-26T10:24:27.462Z,94941.45
2019-03-26T10:26:53.541Z,94935.33
2019-03-26T10:29:29.971Z,94940.54
2019-03-26T10:31:45.602Z,94944.25
2019-03-26T10:34:11.685Z,94934.50
2019-03-26T10:36:37.596Z,94933.05
2019-03-26T10:39:05.498Z,94933.16
2019-03-26T10:41:29.602Z,94934.00
2019-03-26T10:43:55.630Z,94936.75
2019-03-26T10:46:21.638Z,94939.84
2019-03-26T10:48:47.642Z,94935.84
2019-03-26T10:51:13.643Z,94936.66
2019-03-26T10:53:39.668Z,94942.91
2019-03-26T10:56:05.667Z,94936.12
2019-03-26T10:58:31.660Z,94938.80
2019-03-26T11:00:57.660Z,94940.54
2019-03-26T11:03:23.657Z,94933.88
2019-03-26T11:05:49.664Z,94942.70
2019-03-26T11:08:15.659Z,94945.25
2019-03-26T11:10:41.666Z,94941.17
2019-03-26T11:13:07.667Z,94948.75
2019-03-26T11:15:33.664Z,94941.04
2019-03-26T11:17:59.659Z,94940.63
2019-03-26T11:20:25.659Z,94938.38
2019-03-26T11:22:51.660Z,94933.95
2019-03-26T11:25:17.655Z,94937.03
2019-03-26T11:27:43.664Z,94931.83
2019-03-26T11:30:09.670Z,94935.00
2019-03-26T11:32:35.697Z,94933.66
2019-03-26T11:35:01.690Z,94934.58
2019-03-26T11:37:27.689Z,94942.70
2019-03-26T11:42:37.555Z,94940.45
2019-03-26T11:45:03.554Z,94939.50
2019-03-26T11:47:29.551Z,94940.95
2019-03-26T11:49:55.581Z,94939.63
2019-03-26T11:52:21.608Z,94938.00
2019-03-26T11:54:47.615Z,94942.38
2019-03-26T11:57:13.905Z,94944.55
2019-03-26T11:59:39.952Z,94943.71
2019-03-26T12:02:05.946Z,94938.00
2019-03-26T12:04:31.939Z,94944.12
2019-03-26T12:06:57.975Z,94944.12
2019-03-26T12:09:23.976Z,94944.25
2019-03-26T12:11:49.966Z,94947.83
2019-03-26T12:14:15.977Z,94949.58
2019-03-26T12:16:41.981Z,94951.00
2019-03-26T12:19:07.983Z,94956.34
2019-03-26T12:21:33.977Z,94955.92
2019-03-26T12:23:59.995Z,94949.38
2019-03-26T12:26:25.999Z,94954.71
2019-03-26T12:28:52.082Z,94961.47
2019-03-26T12:31:18.071Z,94957.88
2019-03-26T12:33:44.106Z,94968.67
2019-03-26T12:36:10.100Z,94972.26
2019-03-26T12:38:36.120Z,94976.67
2019-03-26T12:41:02.193Z,94977.18
2019-03-26T12:43:28.187Z,94975.76
2019-03-26T12:45:54.188Z,94977.68
2019-03-26T12:48:20.501Z,94981.30
2019-03-26T12:50:46.522Z,94979.02
2019-03-26T12:53:12.932Z,94982.63
2019-03-26T12:55:38.520Z,94981.30
2019-03-26T12:58:04.520Z,94985.80
2019-03-26T13:00:30.515Z,94989.39
2019-03-26T13:02:56.510Z,94989.89
2019-03-26T13:05:23.327Z,94991.64
2019-03-26T13:07:48.509Z,94989.89
2019-03-26T13:10:14.705Z,94986.02
2019-03-26T13:12:40.559Z,94987.34
2019-03-26T13:15:06.559Z,94989.89
2019-03-26T13:17:32.552Z,94988.27
2019-03-26T13:19:58.546Z,94990.42
2019-03-26T13:22:24.544Z,94995.34
2019-03-26T13:24:50.546Z,94995.34
2019-03-26T13:27:16.541Z,94996.17
2019-03-26T13:29:42.560Z,94993.68
2019-03-26T13:32:08.559Z,94994.22
2019-03-26T13:34:34.550Z,94997.39
2019-03-26T13:37:00.556Z,95002.02
2019-03-26T13:39:26.552Z,94996.27
2019-03-26T13:41:52.548Z,95003.22
2019-03-26T13:44:18.547Z,95003.63
2019-03-26T13:46:44.597Z,95002.59
2019-03-26T13:49:10.591Z,95007.01
2019-03-26T13:51:37.304Z,95006.80
2019-03-26T13:54:02.638Z,95006.92
2019-03-26T13:56:28.635Z,95011.55
2019-03-26T13:58:54.642Z,95012.05
2019-03-26T14:01:20.639Z,95007.64
2019-03-26T14:03:47.202Z,95012.56
2019-03-26T14:06:13.215Z,95014.22
2019-03-26T14:08:39.232Z,95021.69
2019-03-26T14:11:05.229Z,95023.94
2019-03-26T14:13:31.231Z,95024.67
2019-03-26T14:15:57.227Z,95021.18
2019-03-26T14:18:23.281Z,95015.55
2019-03-26T14:20:49.327Z,95012.77
2019-03-26T14:23:15.316Z,95014.92
2019-03-26T14:25:41.322Z,95016.77
2019-03-26T14:28:07.319Z,95017.17
2019-03-26T14:30:33.361Z,95019.43
2019-03-26T14:32:59.358Z,95020.89
2019-03-26T14:35:25.358Z,95015.55
2019-03-26T14:37:51.765Z,95019.02
2019-03-26T14:40:17.398Z,95022.60
2019-03-26T14:42:43.409Z,95016.77
2019-03-26T14:45:09.411Z,95020.35
2019-03-26T14:47:35.421Z,95020.77
2019-03-26T14:50:01.417Z,95014.09
2019-03-26T14:52:27.436Z,95019.55
2019-03-26T14:54:53.478Z,95021.27
2019-03-26T14:57:19.474Z,95020.89
2019-03-26T14:59:45.476Z,95017.80
2019-03-26T15:02:11.579Z,95022.22
2019-03-26T15:04:37.578Z,95027.02
2019-03-26T15:07:03.572Z,95022.22
2019-03-26T15:09:29.570Z,95022.60
2019-03-26T15:11:55.563Z,95024.47
2019-03-26T15:14:21.598Z,95025.89
2019-03-26T15:16:47.595Z,95032.14
2019-03-26T15:19:13.598Z,95036.98
2019-03-26T15:21:39.588Z,95043.44
2019-03-26T15:24:05.584Z,95042.81
2019-03-26T15:26:31.606Z,95042.93
2019-03-26T15:28:57.611Z,95048.68
2019-03-26T15:31:23.611Z,95046.94
2019-03-26T15:33:49.612Z,95051.34
2019-03-26T15:36:15.642Z,95058.94
2019-03-26T15:38:41.639Z,95064.36
2019-03-26T15:41:20.728Z,95066.64
2019-03-26T15:43:33.741Z,95073.90
2019-03-26T15:45:59.686Z,95067.35
2019-03-26T15:48:25.690Z,95074.11
2019-03-26T15:50:51.699Z,95071.44
2019-03-26T15:53:17.735Z,95075.44
2019-03-26T15:55:43.735Z,95071.98
2019-03-26T15:58:09.737Z,95068.48
2019-03-26T16:00:35.752Z,95071.14
2019-03-26T16:03:01.752Z,95071.64
2019-03-26T16:05:27.762Z,95071.23
2019-03-26T16:07:53.760Z,95077.19
2019-03-26T16:10:19.797Z,95083.77
2019-03-26T16:12:45.804Z,95083.77
2019-03-26T16:15:11.797Z,95077.93
2019-03-26T16:17:37.797Z,95081.19
2019-03-26T16:20:03.795Z,95081.60
2019-03-26T16:22:29.805Z,95082.94
2019-03-26T16:24:55.813Z,95087.44
2019-03-26T16:27:21.807Z,95085.72
2019-03-26T16:29:47.812Z,95082.64
2019-03-26T16:32:13.832Z,95091.14
2019-03-26T16:34:39.837Z,95086.22
2019-03-26T16:37:05.836Z,95086.64
2019-03-26T16:39:31.842Z,95088.77
2019-03-26T16:41:57.839Z,95091.56
2019-03-26T16:44:23.863Z,95098.11
2019-03-26T16:46:49.851Z,95097.61
2019-03-26T16:49:15.875Z,95099.23
2019-03-26T16:51:41.876Z,95098.85
2019-03-26T16:54:07.876Z,95108.56
2019-03-26T16:56:33.879Z,95101.81
2019-03-26T16:58:59.879Z,95107.44
2019-03-26T17:01:25.878Z,95115.86
2019-03-26T17:03:51.872Z,95118.95
2019-03-26T17:06:17.876Z,95116.36
2019-03-26T17:08:43.872Z,95122.32
2019-03-26T17:11:09.868Z,95128.07
2019-03-26T17:13:35.872Z,95129.82
2019-03-26T17:16:01.884Z,95127.87
2019-03-26T17:18:27.894Z,95129.20
2019-03-26T17:20:53.886Z,95135.86
2019-03-26T17:23:19.888Z,95135.86
2019-03-26T17:25:45.890Z,95146.41
2019-03-26T17:28:11.921Z,95147.75
2019-03-26T17:30:38.418Z,95146.42
2019-03-26T17:33:04.509Z,95153.20
2019-03-26T17:35:30.504Z,95156.38
2019-03-26T17:38:00.166Z,95156.59
2019-03-26T17:40:22.550Z,95165.00
2019-03-26T17:42:48.548Z,95169.00
2019-03-26T17:45:14.547Z,95168.47
2019-03-26T17:47:40.559Z,95175.55
2019-03-26T17:50:06.618Z,95174.64
2019-03-26T17:52:32.622Z,95177.30
2019-03-26T17:54:58.624Z,95179.55
2019-03-26T17:57:24.640Z,95182.64
2019-03-26T17:59:50.646Z,95193.31
2019-03-26T18:02:16.714Z,95195.56
2019-03-26T18:04:42.713Z,95198.34
2019-03-26T18:07:08.719Z,95205.94
2019-03-26T18:09:34.730Z,95204.09
2019-03-26T18:12:00.739Z,95211.16
2019-03-26T18:14:26.741Z,95218.77
2019-03-26T18:16:52.739Z,95221.82
2019-03-26T18:19:18.735Z,95217.82
2019-03-26T18:21:51.241Z,95227.27
2019-03-26T18:24:10.969Z,95228.19
2019-03-26T18:26:37.003Z,95233.94
2019-03-26T18:29:03.034Z,95234.86
2019-03-26T18:31:29.036Z,95240.70
2019-03-26T18:33:55.034Z,95239.36
2019-03-26T18:36:21.042Z,95242.14
2019-03-26T18:38:47.040Z,95235.98
2019-03-26T18:41:13.045Z,95234.14
2019-03-26T18:43:39.043Z,95236.31
2019-03-26T18:46:05.071Z,95241.53
2019-03-26T18:48:31.066Z,95205.52
2019-03-26T18:50:57.067Z,95241.95
2019-03-26T18:53:23.070Z,95243.70
2019-03-26T18:55:49.062Z,95248.11
2019-03-26T18:58:15.064Z,95245.95
2019-03-26T19:00:41.069Z,95244.20
2019-03-26T19:03:07.066Z,95244.20
2019-03-26T19:05:33.059Z,95251.58
2019-03-26T19:07:59.060Z,95242.66
2019-03-26T19:10:25.055Z,95247.28
2019-03-26T19:12:56.666Z,95256.20
2019-03-26T19:15:17.075Z,95255.70
2019-03-26T19:17:43.071Z,95257.95
2019-03-26T19:20:09.070Z,95263.70
2019-03-26T19:22:35.062Z,95261.95
2019-03-26T19:25:01.067Z,95270.45
2019-03-26T19:27:27.059Z,95266.87
2019-03-26T19:29:53.058Z,95266.04
2019-03-26T19:32:19.046Z,95273.03
2019-03-26T19:34:45.117Z,95275.28
2019-03-26T19:37:11.102Z,95278.88
2019-03-26T19:39:37.144Z,95276.83
2019-03-26T19:42:03.136Z,95278.99
2019-03-26T19:44:29.135Z,95280.83
2019-03-26T19:46:55.139Z,95279.99
2019-03-26T19:49:21.135Z,95277.86
2019-03-26T19:51:47.138Z,95284.11
2019-03-26T19:54:13.133Z,95285.95
2019-03-26T19:56:39.128Z,95283.40
2019-03-26T19:59:05.128Z,95290.56
2019-03-26T20:01:31.118Z,95288.31
2019-03-26T20:03:57.136Z,95292.41
2019-03-26T20:06:23.135Z,95297.23
2019-03-26T20:08:49.137Z,95294.98
2019-03-26T20:11:15.566Z,95289.31
2019-03-26T20:13:41.162Z,95294.27
2019-03-26T20:16:07.150Z,95303.19
2019-03-26T20:18:33.151Z,95300.52
2019-03-26T20:20:59.149Z,95305.94
2019-03-26T20:23:25.143Z,95312.52
2019-03-26T20:25:51.152Z,95313.02
2019-03-26T20:28:17.147Z,95312.11
2019-03-26T20:30:43.168Z,95314.86
2019-03-26T20:33:09.164Z,95313.53
2019-03-26T20:35:35.158Z,95323.28
2019-03-26T20:38:01.165Z,95317.03
2019-03-26T20:40:27.204Z,95319.69
2019-03-26T20:42:53.203Z,95324.11
2019-03-26T20:45:19.206Z,95319.19
2019-03-26T20:47:45.216Z,95322.77
2019-03-26T20:50:11.252Z,95325.86
2019-03-26T20:52:37.251Z,95320.94
2019-03-26T20:55:03.249Z,95324.41
2019-03-26T20:57:29.274Z,95325.24
2019-03-26T20:59:55.270Z,95330.16
2019-03-26T21:02:21.275Z,95337.25
2019-03-26T21:04:47.282Z,95341.55
2019-03-26T21:07:13.290Z,95346.08
2019-03-26T21:09:39.293Z,95346.08
2019-03-26T21:12:05.288Z,95349.55
2019-03-26T21:14:31.324Z,95351.72
2019-03-26T21:16:57.319Z,95353.88
2019-03-26T21:19:23.315Z,95352.63
2019-03-26T21:21:49.321Z,95353.05
2019-03-26T21:24:15.321Z,95361.47
2019-03-26T21:26:41.329Z,95367.10
2019-03-26T21:29:07.325Z,95366.59
2019-03-26T21:31:33.348Z,95369.27
2019-03-26T21:33:59.344Z,95368.35
2019-03-26T21:36:25.354Z,95377.69
2019-03-26T21:38:51.349Z,95380.44
2019-03-26T21:41:17.343Z,95391.02
2019-03-26T21:43:43.350Z,95386.19
2019-03-26T21:46:09.351Z,95395.03
2019-03-26T21:48:35.355Z,95391.41
2019-03-26T21:51:01.359Z,95389.98
2019-03-26T21:53:27.367Z,95397.08
2019-03-26T21:56:05.801Z,95399.83
2019-03-26T21:58:19.358Z,95404.25
2019-03-26T22:00:45.353Z,95400.75
2019-03-26T22:03:11.351Z,95412.25
2019-03-26T22:05:37.357Z,95408.66
2019-03-26T22:08:03.348Z,95402.50
2019-03-26T22:10:29.352Z,95413.50
2019-03-26T22:12:55.346Z,95422.84
2019-03-26T22:15:21.357Z,95423.75
2019-03-26T22:17:47.352Z,95418.00
2019-03-26T22:20:13.342Z,95420.25
2019-03-26T22:22:39.348Z,95413.16
2019-03-26T22:25:05.341Z,95419.03
2019-03-26T22:27:31.699Z,95423.03
2019-03-26T22:29:57.611Z,95424.45
2019-03-26T22:32:23.614Z,95422.70
2019-03-26T22:34:49.602Z,95430.70
2019-03-26T22:37:15.625Z,95430.41
2019-03-26T22:39:41.620Z,95427.73
2019-03-26T22:42:07.675Z,95432.16
2019-03-26T22:44:33.681Z,95433.98
2019-03-26T22:46:59.671Z,95432.66
2019-03-26T22:49:25.675Z,95430.60
2019-03-26T22:51:51.676Z,95433.69
2019-03-26T22:54:17.667Z,95443.44
2019-03-26T22:56:43.711Z,95442.69
2019-03-26T22:59:09.704Z,95439.64
2019-03-26T23:01:35.705Z,95435.22
2019-03-26T23:04:01.723Z,95441.05
2019-03-26T23:06:27.743Z,95436.75
2019-03-26T23:08:53.741Z,95442.17
2019-03-26T23:11:19.739Z,95437.25
2019-03-26T23:13:45.733Z,95441.37
2019-03-26T23:16:11.743Z,95439.20
2019-03-26T23:18:37.789Z,95439.20
2019-03-26T23:21:03.783Z,95437.56
2019-03-26T23:23:29.787Z,95441.16
2019-03-26T23:25:55.783Z,95441.66
2019-03-26T23:28:21.780Z,95439.91
2019-03-26T23:30:47.780Z,95438.16
2019-03-26T23:33:14.309Z,95440.94
2019-03-26T23:35:40.318Z,95445.84
2019-03-26T23:38:06.392Z,95446.34
2019-03-26T23:40:32.391Z,95446.05
2019-03-26T23:42:58.390Z,95444.30
2019-03-26T23:45:24.415Z,95445.22
2019-03-26T23:47:50.402Z,95447.47
2019-03-26T23:50:16.394Z,95444.50
2019-03-26T23:52:42.397Z,95436.00
2019-03-26T23:55:08.390Z,95437.41
2019-03-26T23:57:37.283Z,95440.08
